createdAt,value
2017-07-22T00:00:24.485Z,99.90
2017-07-22T00:02:59.673Z,99.90
2017-07-22T00:05:28.638Z,99.90
2017-07-22T00:07:57.601Z,99.90
2017-07-22T00:10:26.551Z,99.90
2017-07-22T00:12:55.540Z,99.90
2017-07-22T00:15:24.529Z,99.90
2017-07-22T00:17:53.475Z,99.90
2017-07-22T00:20:22.458Z,99.90
2017-07-22T00:22:51.437Z,99.90
2017-07-22T00:25:20.430Z,99.90
2017-07-22T00:27:49.369Z,99.90
2017-07-22T00:30:18.354Z,99.90
2017-07-22T00:32:47.333Z,99.90
2017-07-22T00:35:16.245Z,99.90
2017-07-22T00:37:45.228Z,99.90
2017-07-22T00:40:14.216Z,99.90
2017-07-22T00:42:43.208Z,99.90
2017-07-22T00:45:12.228Z,99.90
2017-07-22T00:47:41.209Z,99.90
2017-07-22T00:50:10.198Z,99.90
2017-07-22T00:52:39.301Z,99.90
2017-07-22T00:55:08.238Z,99.90
2017-07-22T00:57:37.533Z,99.90
2017-07-22T01:00:06.509Z,99.90
2017-07-22T01:02:35.449Z,99.90
2017-07-22T01:05:04.422Z,99.90
2017-07-22T01:07:33.363Z,99.90
2017-07-22T01:10:02.318Z,99.90
2017-07-22T01:12:31.341Z,99.90
2017-07-22T01:15:00.361Z,99.90
2017-07-22T01:17:29.349Z,99.90
2017-07-22T01:19:58.274Z,99.90
2017-07-22T01:22:27.419Z,99.90
2017-07-22T01:24:56.357Z,99.90
2017-07-22T01:27:25.329Z,99.90
2017-07-22T01:29:54.281Z,99.90
2017-07-22T01:32:23.312Z,99.90
2017-07-22T01:34:52.286Z,99.90
2017-07-22T01:37:21.305Z,99.90
2017-07-22T01:39:50.349Z,99.90
2017-07-22T01:42:19.286Z,99.90
2017-07-22T01:44:48.242Z,99.90
2017-07-22T01:47:17.288Z,99.90
2017-07-22T01:49:46.381Z,99.90
2017-07-22T01:52:15.373Z,99.90
2017-07-22T01:54:44.370Z,99.90
2017-07-22T01:57:13.394Z,99.90
2017-07-22T01:59:42.629Z,99.90
2017-07-22T02:02:11.653Z,99.90
2017-07-22T02:04:40.617Z,99.90
2017-07-22T02:07:09.607Z,99.90
2017-07-22T02:09:38.608Z,99.90
2017-07-22T02:12:07.611Z,99.90
2017-07-22T02:14:36.598Z,99.90
2017-07-22T02:17:05.913Z,99.90
2017-07-22T02:19:34.856Z,99.90
2017-07-22T02:22:03.785Z,99.90
2017-07-22T02:24:32.763Z,99.90
2017-07-22T02:27:02.315Z,99.90
2017-07-22T02:29:31.317Z,99.90
2017-07-22T02:32:00.311Z,99.90
2017-07-22T02:34:29.261Z,99.90
2017-07-22T02:36:58.269Z,99.90
2017-07-22T02:39:27.213Z,99.90
2017-07-22T02:41:56.202Z,99.90
2017-07-22T02:44:25.145Z,99.90
2017-07-22T02:46:54.101Z,99.90
2017-07-22T02:49:23.110Z,99.90
2017-07-22T02:51:52.094Z,99.90
2017-07-22T02:54:21.126Z,99.90
2017-07-22T02:56:50.206Z,99.90
2017-07-22T02:59:19.494Z,99.90
2017-07-22T03:01:48.761Z,99.90
2017-07-22T03:04:17.749Z,99.90
2017-07-22T03:06:46.693Z,99.90
2017-07-22T03:09:15.690Z,99.90
2017-07-22T03:11:44.625Z,99.90
2017-07-22T03:14:13.601Z,99.90
2017-07-22T03:16:42.550Z,99.90
2017-07-22T03:19:11.546Z,99.90
2017-07-22T03:21:40.532Z,99.90
2017-07-22T03:24:09.514Z,99.90
2017-07-22T03:26:38.529Z,99.90
2017-07-22T03:29:07.477Z,99.90
2017-07-22T03:31:36.428Z,99.90
2017-07-22T03:34:05.370Z,99.90
2017-07-22T03:36:34.295Z,99.90
2017-07-22T03:39:03.394Z,99.90
2017-07-22T03:41:32.337Z,99.90
2017-07-22T03:44:01.268Z,99.90
2017-07-22T03:46:30.226Z,99.90
2017-07-22T03:48:59.160Z,99.90
2017-07-22T03:51:28.096Z,99.90
2017-07-22T03:53:57.061Z,99.90
2017-07-22T03:56:26.040Z,99.90
2017-07-22T03:58:55.120Z,99.90
2017-07-22T04:01:24.093Z,99.90
2017-07-22T04:03:53.341Z,99.90
2017-07-22T04:06:22.450Z,99.90
2017-07-22T04:08:51.666Z,99.90
2017-07-22T04:11:20.656Z,99.90
2017-07-22T04:13:49.601Z,99.90
2017-07-22T04:16:18.553Z,99.90
2017-07-22T04:18:47.504Z,99.90
2017-07-22T04:21:16.672Z,99.90
2017-07-22T04:23:45.699Z,99.90
2017-07-22T04:26:14.653Z,99.90
2017-07-22T04:28:43.624Z,99.90
2017-07-22T04:31:12.592Z,99.90
2017-07-22T04:33:41.576Z,99.90
2017-07-22T04:36:10.618Z,99.90
2017-07-22T04:38:39.702Z,99.90
2017-07-22T04:41:08.630Z,99.90
2017-07-22T04:43:37.609Z,99.90
2017-07-22T04:46:06.520Z,99.90
2017-07-22T04:48:35.458Z,99.90
2017-07-22T04:51:04.425Z,99.90
2017-07-22T04:53:33.450Z,99.90
2017-07-22T04:56:02.620Z,99.90
2017-07-22T04:58:31.632Z,99.90
2017-07-22T05:01:00.618Z,99.90
2017-07-22T05:03:29.611Z,99.90
2017-07-22T05:05:58.569Z,99.90
2017-07-22T05:08:27.587Z,99.90
2017-07-22T05:10:56.516Z,99.90
2017-07-22T05:13:25.466Z,99.90
2017-07-22T05:15:54.483Z,99.90
2017-07-22T05:18:23.485Z,99.90
2017-07-22T05:20:52.493Z,99.90
2017-07-22T05:23:21.495Z,99.90
2017-07-22T05:25:50.470Z,99.90
2017-07-22T05:28:19.515Z,99.90
2017-07-22T05:30:48.515Z,99.90
2017-07-22T05:33:17.512Z,99.90
2017-07-22T05:35:46.828Z,99.90
2017-07-22T05:38:15.789Z,99.90
2017-07-22T05:40:44.717Z,99.90
2017-07-22T05:43:13.773Z,99.90
2017-07-22T05:45:42.817Z,99.90
2017-07-22T05:48:11.758Z,99.90
2017-07-22T05:50:40.909Z,99.90
2017-07-22T05:53:09.910Z,99.90
2017-07-22T05:55:38.922Z,99.90
2017-07-22T05:58:07.902Z,99.90
2017-07-22T06:00:36.951Z,99.90
2017-07-22T06:03:05.903Z,99.90
2017-07-22T06:05:34.850Z,99.90
2017-07-22T06:08:03.882Z,99.90
2017-07-22T06:10:32.833Z,99.90
2017-07-22T06:13:01.762Z,99.90
2017-07-22T06:15:30.739Z,99.90
2017-07-22T06:17:59.734Z,99.90
2017-07-22T06:20:28.720Z,99.90
2017-07-22T06:22:57.976Z,99.90
2017-07-22T06:25:26.922Z,99.90
2017-07-22T06:27:55.866Z,99.90
2017-07-22T06:30:24.866Z,99.90
2017-07-22T06:32:53.826Z,99.90
2017-07-22T06:35:22.822Z,99.90
2017-07-22T06:37:51.839Z,99.90
2017-07-22T06:41:40.157Z,99.90
2017-07-22T06:44:09.126Z,99.90
2017-07-22T06:46:38.101Z,99.90
2017-07-22T06:49:07.037Z,99.90
2017-07-22T06:51:36.083Z,99.90
2017-07-22T06:54:05.044Z,99.90
2017-07-22T06:56:33.989Z,99.90
2017-07-22T06:59:02.989Z,99.90
2017-07-22T07:01:31.952Z,99.90
2017-07-22T07:04:00.957Z,99.90
2017-07-22T07:06:29.953Z,99.90
2017-07-22T07:08:59.369Z,99.90
2017-07-22T07:11:28.339Z,99.90
2017-07-22T07:13:57.399Z,99.90
2017-07-22T07:16:26.376Z,99.90
2017-07-22T07:18:55.311Z,99.90
2017-07-22T07:21:24.320Z,99.90
2017-07-22T07:23:53.300Z,99.90
2017-07-22T07:26:22.301Z,99.90
2017-07-22T07:28:51.322Z,99.90
2017-07-22T07:31:20.289Z,99.90
2017-07-22T07:33:49.274Z,99.90
2017-07-22T07:36:18.243Z,99.90
2017-07-22T07:38:47.212Z,99.90
2017-07-22T07:41:16.170Z,99.90
2017-07-22T07:43:45.166Z,99.90
2017-07-22T07:46:14.177Z,99.90
2017-07-22T07:48:43.240Z,99.90
2017-07-22T07:51:12.201Z,99.90
2017-07-22T07:53:41.207Z,99.90
2017-07-22T07:56:10.230Z,99.90
2017-07-22T07:58:39.267Z,99.90
2017-07-22T08:01:08.235Z,99.90
2017-07-22T08:03:37.254Z,99.90
2017-07-22T08:06:06.247Z,99.90
2017-07-22T08:08:35.347Z,99.90
2017-07-22T08:11:04.393Z,99.90
2017-07-22T08:13:33.408Z,99.90
2017-07-22T08:16:02.390Z,99.90
2017-07-22T08:18:31.400Z,99.90
2017-07-22T08:21:00.544Z,99.90
2017-07-22T08:23:29.553Z,99.90
2017-07-22T08:25:58.535Z,99.90
2017-07-22T08:28:27.538Z,99.90
2017-07-22T08:30:56.575Z,99.90
2017-07-22T08:33:25.624Z,99.90
2017-07-22T08:35:54.657Z,99.90
2017-07-22T08:38:23.992Z,99.90
2017-07-22T08:40:53.076Z,99.90
2017-07-22T08:43:22.086Z,99.90
2017-07-22T08:45:51.219Z,99.90
2017-07-22T08:48:20.920Z,99.90
2017-07-22T08:50:49.958Z,99.90
2017-07-22T08:53:18.937Z,99.90
2017-07-22T08:55:47.933Z,99.90
2017-07-22T08:58:16.917Z,99.90
2017-07-22T09:00:45.951Z,99.90
2017-07-22T09:03:14.929Z,98.00
2017-07-22T09:05:43.994Z,96.30
2017-07-22T09:08:13.122Z,95.60
2017-07-22T09:10:42.134Z,97.00
2017-07-22T09:13:11.123Z,97.50
2017-07-22T09:15:40.116Z,93.40
2017-07-22T09:18:09.190Z,91.70
2017-07-22T09:20:39.116Z,92.00
2017-07-22T09:23:08.146Z,91.50
2017-07-22T09:25:37.283Z,90.40
2017-07-22T09:28:06.378Z,90.10
2017-07-22T09:30:35.361Z,91.10
2017-07-22T09:33:04.474Z,90.90
2017-07-22T09:35:33.480Z,94.10
2017-07-22T09:38:02.595Z,94.80
2017-07-22T09:40:31.574Z,95.50
2017-07-22T09:43:00.601Z,94.20
2017-07-22T09:45:29.629Z,96.60
2017-07-22T09:47:58.618Z,99.40
2017-07-22T09:50:27.623Z,99.00
2017-07-22T09:52:56.592Z,99.90
2017-07-22T09:55:25.659Z,99.90
2017-07-22T09:57:54.652Z,99.90
2017-07-22T10:00:23.813Z,99.90
2017-07-22T10:02:52.873Z,99.90
2017-07-22T10:05:22.001Z,99.90
2017-07-22T10:07:51.359Z,99.90
2017-07-22T10:10:20.353Z,99.90
2017-07-22T10:12:49.443Z,99.90
2017-07-22T10:15:18.474Z,96.50
2017-07-22T10:17:47.666Z,93.20
2017-07-22T10:20:16.720Z,91.00
2017-07-22T10:22:45.715Z,73.30
2017-07-22T10:25:14.693Z,83.40
2017-07-22T10:27:43.800Z,78.90
2017-07-22T10:30:12.782Z,75.50
2017-07-22T10:32:41.812Z,71.20
2017-07-22T10:35:11.236Z,70.00
2017-07-22T10:37:40.430Z,68.70
2017-07-22T10:40:09.385Z,67.70
2017-07-22T10:42:38.502Z,63.70
2017-07-22T10:46:26.962Z,65.40
2017-07-22T10:48:55.979Z,65.70
2017-07-22T10:51:24.983Z,62.10
2017-07-22T10:53:54.005Z,71.10
2017-07-22T10:56:23.411Z,64.70
2017-07-22T10:58:53.125Z,65.50
2017-07-22T11:01:22.793Z,66.10
2017-07-22T11:03:52.432Z,59.20
2017-07-22T11:06:21.406Z,57.30
2017-07-22T11:08:50.532Z,60.80
2017-07-22T11:11:19.524Z,61.60
2017-07-22T11:13:48.508Z,65.50
2017-07-22T11:16:18.309Z,61.00
2017-07-22T11:18:47.293Z,61.20
2017-07-22T11:21:17.222Z,58.80
2017-07-22T11:23:47.790Z,61.00
2017-07-22T11:26:16.920Z,57.50
2017-07-22T11:28:46.383Z,60.80
2017-07-22T11:31:15.358Z,60.30
2017-07-22T11:33:44.397Z,59.50
2017-07-22T11:36:13.467Z,62.20
2017-07-22T11:38:42.473Z,61.90
2017-07-22T11:41:11.632Z,70.00
2017-07-22T11:44:11.279Z,68.30
2017-07-22T11:46:40.297Z,78.50
2017-07-22T11:49:09.277Z,78.70
2017-07-22T11:51:38.847Z,74.60
2017-07-22T11:54:07.924Z,75.10
2017-07-22T11:56:37.476Z,75.30
2017-07-22T11:59:06.992Z,74.50
2017-07-22T12:01:36.023Z,74.30
2017-07-22T12:04:37.178Z,75.70
2017-07-22T12:07:06.198Z,75.20
2017-07-22T12:09:35.590Z,79.50
2017-07-22T12:12:04.605Z,84.30
2017-07-22T12:14:33.842Z,84.20
2017-07-22T12:17:02.864Z,82.00
2017-07-22T12:19:33.199Z,86.70
2017-07-22T12:22:02.258Z,83.50
2017-07-22T12:24:31.551Z,85.20
2017-07-22T12:27:00.548Z,86.70
2017-07-22T12:29:30.348Z,90.20
2017-07-22T12:32:00.201Z,81.50
2017-07-22T12:34:34.635Z,86.20
2017-07-22T12:37:03.670Z,85.50
2017-07-22T12:39:32.679Z,88.80
2017-07-22T12:42:02.489Z,88.90
2017-07-22T12:44:33.406Z,85.00
2017-07-22T12:47:04.000Z,91.50
2017-07-22T12:49:34.423Z,89.70
2017-07-22T12:52:04.404Z,88.10
2017-07-22T12:54:33.494Z,80.90
2017-07-22T12:57:06.184Z,82.20
2017-07-22T12:59:36.163Z,84.80
2017-07-22T13:02:05.184Z,81.70
2017-07-22T13:04:34.326Z,85.30
2017-07-22T13:07:04.006Z,84.20
2017-07-22T13:09:33.488Z,83.90
2017-07-22T13:12:03.545Z,90.40
2017-07-22T13:14:34.039Z,86.00
2017-07-22T13:17:03.155Z,85.30
2017-07-22T13:19:32.843Z,88.30
2017-07-22T13:22:31.982Z,87.60
2017-07-22T13:25:01.404Z,88.20
2017-07-22T13:27:30.426Z,87.80
2017-07-22T13:30:00.023Z,86.30
2017-07-22T13:32:29.027Z,81.10
2017-07-22T13:34:58.657Z,85.10
2017-07-22T13:37:28.370Z,86.10
2017-07-22T13:39:57.352Z,82.60
2017-07-22T13:42:27.112Z,82.10
2017-07-22T13:44:56.082Z,83.40
2017-07-22T13:47:25.310Z,83.80
2017-07-22T13:49:54.400Z,85.00
2017-07-22T13:52:24.226Z,86.80
2017-07-22T13:54:54.329Z,90.30
2017-07-22T13:57:24.837Z,91.00
2017-07-22T14:00:24.454Z,87.20
2017-07-22T14:02:54.031Z,85.70
2017-07-22T14:05:23.640Z,90.90
2017-07-22T14:07:52.642Z,87.20
2017-07-22T14:10:21.703Z,86.00
2017-07-22T14:12:51.301Z,85.30
2017-07-22T14:15:20.302Z,85.70
2017-07-22T14:17:49.297Z,90.00
2017-07-22T14:20:18.306Z,88.80
2017-07-22T14:22:48.575Z,89.50
2017-07-22T14:25:17.583Z,85.70
2017-07-22T14:27:47.416Z,83.60
2017-07-22T14:30:16.456Z,85.90
2017-07-22T14:32:45.446Z,85.80
2017-07-22T14:35:14.874Z,85.70
2017-07-22T14:37:44.278Z,86.20
2017-07-22T14:40:14.082Z,85.90
2017-07-22T14:42:43.065Z,87.60
2017-07-22T14:45:12.134Z,87.30
2017-07-22T14:47:43.293Z,90.60
2017-07-22T14:50:12.952Z,89.90
2017-07-22T14:52:42.033Z,90.30
2017-07-22T14:55:11.643Z,91.20
2017-07-22T14:57:40.669Z,91.90
2017-07-22T15:00:10.430Z,91.30
2017-07-22T15:02:39.462Z,92.50
2017-07-22T15:05:09.146Z,91.40
2017-07-22T15:07:38.894Z,92.30
2017-07-22T15:10:08.603Z,92.60
2017-07-22T15:12:38.470Z,93.50
2017-07-22T15:15:07.488Z,92.90
2017-07-22T15:17:36.718Z,91.30
2017-07-22T15:20:05.764Z,89.30
2017-07-22T15:22:35.002Z,87.90
2017-07-22T15:25:05.148Z,90.20
2017-07-22T15:27:35.766Z,88.30
2017-07-22T15:30:05.278Z,89.40
2017-07-22T15:32:34.330Z,89.20
2017-07-22T15:35:06.969Z,89.80
2017-07-22T15:37:36.730Z,89.20
2017-07-22T15:40:06.423Z,89.60
2017-07-22T15:42:35.493Z,91.10
2017-07-22T15:45:05.274Z,91.50
2017-07-22T15:47:37.169Z,91.40
2017-07-22T15:50:07.640Z,90.70
2017-07-22T15:52:38.341Z,91.30
2017-07-22T15:55:07.673Z,92.60
2017-07-22T15:57:36.826Z,93.00
2017-07-22T16:00:06.997Z,92.50
2017-07-22T16:02:37.350Z,91.90
2017-07-22T16:05:08.180Z,91.90
2017-07-22T16:07:38.066Z,93.00
2017-07-22T16:10:07.914Z,94.40
2017-07-22T16:12:37.761Z,93.10
2017-07-22T16:15:06.737Z,94.30
2017-07-22T16:17:35.740Z,94.40
2017-07-22T16:20:05.446Z,94.80
2017-07-22T16:22:34.566Z,94.90
2017-07-22T16:25:03.591Z,95.20
2017-07-22T16:27:33.399Z,94.30
2017-07-22T16:30:04.356Z,94.90
2017-07-22T16:32:34.133Z,95.20
2017-07-22T16:35:04.284Z,94.50
2017-07-22T16:37:34.270Z,94.40
2017-07-22T16:40:04.180Z,95.70
2017-07-22T16:42:34.013Z,95.20
2017-07-22T16:45:03.001Z,95.80
2017-07-22T16:47:32.749Z,94.70
2017-07-22T16:50:02.622Z,94.70
2017-07-22T16:52:33.306Z,95.30
2017-07-22T16:55:03.114Z,95.00
2017-07-22T16:57:32.810Z,94.80
2017-07-22T17:00:03.686Z,94.80
2017-07-22T17:02:34.218Z,95.30
2017-07-22T17:05:03.779Z,95.70
2017-07-22T17:07:32.759Z,94.90
2017-07-22T17:10:02.666Z,96.50
2017-07-22T17:12:32.448Z,96.20
2017-07-22T17:15:01.511Z,94.90
2017-07-22T17:17:31.394Z,95.00
2017-07-22T17:20:00.374Z,94.20
2017-07-22T17:22:29.397Z,95.10
2017-07-22T17:24:58.507Z,96.00
2017-07-22T17:27:29.017Z,95.60
2017-07-22T17:30:00.941Z,95.80
2017-07-22T17:32:29.997Z,95.90
2017-07-22T17:34:59.830Z,95.40
2017-07-22T17:37:30.673Z,95.90
2017-07-22T17:40:00.773Z,96.40
2017-07-22T17:42:29.829Z,94.60
2017-07-22T17:45:00.010Z,93.00
2017-07-22T17:47:29.077Z,93.20
2017-07-22T17:49:58.184Z,93.50
2017-07-22T17:52:27.809Z,92.00
2017-07-22T17:54:58.799Z,92.10
2017-07-22T17:57:29.122Z,92.30
2017-07-22T18:00:00.333Z,92.00
2017-07-22T18:02:29.328Z,91.60
2017-07-22T18:04:58.433Z,92.10
2017-07-22T18:07:27.518Z,92.10
2017-07-22T18:09:58.205Z,91.80
2017-07-22T18:12:29.141Z,91.80
2017-07-22T18:15:00.702Z,92.40
2017-07-22T18:17:30.575Z,91.80
2017-07-22T18:19:59.896Z,91.50
2017-07-22T18:22:28.907Z,91.80
2017-07-22T18:24:57.955Z,92.80
2017-07-22T18:27:27.853Z,92.80
2017-07-22T18:29:59.368Z,93.20
2017-07-22T18:32:28.417Z,94.00
2017-07-22T18:34:57.498Z,93.50
2017-07-22T18:37:26.569Z,93.70
2017-07-22T18:39:55.632Z,94.30
2017-07-22T18:42:24.659Z,95.00
2017-07-22T18:44:54.504Z,95.80
2017-07-22T18:47:23.539Z,95.90
2017-07-22T18:49:54.234Z,96.70
2017-07-22T18:52:23.233Z,96.70
2017-07-22T18:54:52.226Z,96.50
2017-07-22T18:57:22.149Z,95.80
2017-07-22T18:59:51.162Z,96.90
2017-07-22T19:02:23.111Z,96.40
2017-07-22T19:04:53.007Z,96.30
2017-07-22T19:07:22.014Z,96.40
2017-07-22T19:09:51.905Z,96.80
2017-07-22T19:12:21.218Z,96.80
2017-07-22T19:15:52.534Z,97.50
2017-07-22T19:18:23.410Z,98.10
2017-07-22T19:20:52.420Z,98.70
2017-07-22T19:23:24.057Z,98.50
2017-07-22T19:25:54.809Z,98.70
2017-07-22T19:28:23.980Z,99.10
2017-07-22T19:30:52.975Z,99.40
2017-07-22T19:33:22.911Z,99.10
2017-07-22T19:35:53.086Z,99.10
2017-07-22T19:38:24.833Z,99.00
2017-07-22T19:40:53.978Z,98.90
2017-07-22T19:43:25.179Z,98.70
2017-07-22T19:45:54.933Z,98.70
2017-07-22T19:48:25.714Z,98.80
2017-07-22T19:50:56.526Z,98.90
2017-07-22T19:53:26.435Z,99.00
2017-07-22T19:56:00.030Z,98.90
2017-07-22T19:58:30.057Z,99.20
2017-07-22T20:00:59.041Z,99.30
2017-07-22T20:03:28.095Z,99.40
2017-07-22T20:05:59.557Z,99.30
2017-07-22T20:09:31.172Z,99.40
2017-07-22T20:12:05.483Z,99.50
2017-07-22T20:14:36.837Z,99.70
2017-07-22T20:17:05.930Z,99.80
2017-07-22T20:19:36.818Z,99.90
2017-07-22T20:22:05.825Z,99.80
2017-07-22T20:24:34.886Z,99.90
2017-07-22T20:27:03.902Z,99.90
2017-07-22T20:29:33.008Z,99.90
2017-07-22T20:32:06.873Z,99.90
2017-07-22T20:34:35.950Z,99.90
2017-07-22T20:37:05.901Z,99.90
2017-07-22T20:39:34.881Z,99.90
2017-07-22T20:42:03.939Z,99.90
2017-07-22T20:44:36.453Z,99.90
2017-07-22T20:47:05.447Z,99.90
2017-07-22T20:49:36.199Z,99.90
2017-07-22T20:52:06.063Z,99.90
2017-07-22T20:54:35.052Z,99.90
2017-07-22T20:57:04.985Z,99.90
2017-07-22T20:59:34.933Z,99.90
2017-07-22T21:02:05.758Z,99.90
2017-07-22T21:04:37.492Z,99.90
2017-07-22T21:07:06.561Z,99.90
2017-07-22T21:09:36.449Z,99.90
2017-07-22T21:12:10.202Z,99.90
2017-07-22T21:14:39.280Z,99.90
2017-07-22T21:17:08.365Z,99.90
2017-07-22T21:19:39.466Z,99.90
2017-07-22T21:22:09.418Z,99.90
2017-07-22T21:24:44.115Z,99.90
2017-07-22T21:27:15.125Z,99.90
2017-07-22T21:30:14.522Z,99.90
2017-07-22T21:32:44.390Z,99.90
2017-07-22T21:35:16.953Z,99.90
2017-07-22T21:37:46.682Z,99.90
2017-07-22T21:40:15.651Z,99.90
2017-07-22T21:42:46.457Z,99.90
2017-07-22T21:45:15.521Z,99.90
2017-07-22T21:47:46.188Z,99.90
2017-07-22T21:50:15.992Z,99.90
2017-07-22T21:52:47.303Z,99.90
2017-07-22T21:55:16.269Z,99.90
2017-07-22T21:57:46.115Z,99.90
2017-07-22T22:00:15.121Z,99.90
2017-07-22T22:02:47.385Z,99.90
2017-07-22T22:05:16.386Z,99.90
2017-07-22T22:07:46.233Z,99.90
2017-07-22T22:10:15.234Z,99.90
2017-07-22T22:15:19.738Z,99.90
2017-07-22T22:17:51.059Z,99.90
2017-07-22T22:20:20.218Z,99.90
2017-07-22T22:22:49.969Z,99.90
2017-07-22T22:25:20.418Z,99.90
2017-07-22T22:27:50.857Z,99.90
2017-07-22T22:30:19.870Z,99.90
2017-07-22T22:32:49.728Z,99.90
2017-07-22T22:35:19.029Z,99.90
2017-07-22T22:37:48.397Z,99.90
2017-07-22T22:41:38.000Z,99.90
2017-07-22T22:44:07.425Z,99.90
2017-07-22T22:46:36.664Z,99.90
2017-07-22T22:49:06.062Z,99.90
2017-07-22T22:51:35.233Z,99.90
2017-07-22T22:54:04.809Z,99.90
2017-07-22T22:56:33.989Z,99.90
2017-07-22T23:12:26.078Z,99.90
2017-07-22T23:15:57.675Z,99.90
2017-07-22T23:18:26.682Z,99.90
2017-07-22T23:20:55.760Z,99.90
2017-07-22T23:23:24.947Z,99.90
2017-07-22T23:25:53.941Z,99.90
2017-07-22T23:28:23.210Z,99.90
2017-07-22T23:30:52.169Z,99.90
2017-07-22T23:33:21.798Z,99.90
2017-07-22T23:35:50.768Z,99.90
2017-07-22T23:38:19.729Z,99.90
2017-07-22T23:40:48.692Z,99.90
2017-07-22T23:43:17.642Z,99.90
2017-07-22T23:45:46.608Z,99.90
2017-07-22T23:48:15.614Z,99.90
2017-07-22T23:50:44.585Z,99.90
2017-07-22T23:53:13.561Z,99.90
2017-07-22T23:55:42.511Z,99.90
2017-07-22T23:58:11.495Z,99.90
